sensor_id;sensor_type;location;lat;lon;timestamp;P1;durP1;ratioP1;P2;durP2;ratioP2
5052;SDS011;2545;50.892;5.740;2024-02-14T00:00:32;2.60;;;1.70;;
5052;SDS011;2545;50.892;5.740;2024-02-14T00:02:57;2.10;;;1.70;;
5052;SDS011;2545;50.892;5.740;2024-02-14T00:05:22;2.33;;;1.40;;
5052;SDS011;2545;50.892;5.740;2024-02-14T00:07:48;2.57;;;1.80;;
5052;SDS011;2545;50.892;5.740;2024-02-14T00:10:13;1.90;;;1.50;;
5052;SDS011;2545;50.892;5.740;2024-02-14T00:12:40;5.80;;;1.67;;
5052;SDS011;2545;50.892;5.740;2024-02-14T00:15:10;9.10;;;2.07;;
5052;SDS011;2545;50.892;5.740;2024-02-14T00:17:35;2.00;;;1.67;;
5052;SDS011;2545;50.892;5.740;2024-02-14T00:20:01;2.60;;;1.83;;
5052;SDS011;2545;50.892;5.740;2024-02-14T00:22:29;2.00;;;1.90;;
5052;SDS011;2545;50.892;5.740;2024-02-14T00:24:55;1.80;;;1.70;;
5052;SDS011;2545;50.892;5.740;2024-02-14T00:27:20;2.50;;;1.53;;
5052;SDS011;2545;50.892;5.740;2024-02-14T00:29:45;1.70;;;1.60;;
5052;SDS011;2545;50.892;5.740;2024-02-14T00:32:14;4.10;;;2.00;;
5052;SDS011;2545;50.892;5.740;2024-02-14T00:34:40;5.10;;;1.77;;
5052;SDS011;2545;50.892;5.740;2024-02-14T00:37:07;2.83;;;1.93;;
5052;SDS011;2545;50.892;5.740;2024-02-14T00:39:32;2.77;;;1.77;;
5052;SDS011;2545;50.892;5.740;2024-02-14T00:41:58;2.10;;;1.90;;
5052;SDS011;2545;50.892;5.740;2024-02-14T00:44:24;2.37;;;2.10;;
5052;SDS011;2545;50.892;5.740;2024-02-14T00:46:55;4.20;;;2.40;;
5052;SDS011;2545;50.892;5.740;2024-02-14T00:49:22;2.93;;;1.70;;
5052;SDS011;2545;50.892;5.740;2024-02-14T00:51:47;4.50;;;1.80;;
5052;SDS011;2545;50.892;5.740;2024-02-14T00:54:13;7.13;;;1.90;;
5052;SDS011;2545;50.892;5.740;2024-02-14T00:56:38;4.50;;;1.80;;
5052;SDS011;2545;50.892;5.740;2024-02-14T00:59:05;2.60;;;1.77;;
5052;SDS011;2545;50.892;5.740;2024-02-14T01:01:32;7.13;;;2.10;;
5052;SDS011;2545;50.892;5.740;2024-02-14T01:03:59;2.53;;;1.83;;
5052;SDS011;2545;50.892;5.740;2024-02-14T01:06:26;2.20;;;1.73;;
5052;SDS011;2545;50.892;5.740;2024-02-14T01:08:51;4.10;;;2.00;;
5052;SDS011;2545;50.892;5.740;2024-02-14T01:11:16;5.70;;;1.93;;
5052;SDS011;2545;50.892;5.740;2024-02-14T01:13:42;5.97;;;1.60;;
5052;SDS011;2545;50.892;5.740;2024-02-14T01:16:09;2.23;;;1.80;;
5052;SDS011;2545;50.892;5.740;2024-02-14T01:18:34;5.30;;;1.90;;
5052;SDS011;2545;50.892;5.740;2024-02-14T01:21:00;3.80;;;1.93;;
5052;SDS011;2545;50.892;5.740;2024-02-14T01:23:27;9.17;;;2.47;;
5052;SDS011;2545;50.892;5.740;2024-02-14T01:25:54;3.00;;;1.73;;
5052;SDS011;2545;50.892;5.740;2024-02-14T01:28:22;3.10;;;1.80;;
5052;SDS011;2545;50.892;5.740;2024-02-14T01:30:47;1.90;;;1.53;;
5052;SDS011;2545;50.892;5.740;2024-02-14T01:33:14;3.03;;;2.23;;
5052;SDS011;2545;50.892;5.740;2024-02-14T01:35:42;4.50;;;2.00;;
5052;SDS011;2545;50.892;5.740;2024-02-14T01:38:10;3.00;;;1.83;;
5052;SDS011;2545;50.892;5.740;2024-02-14T01:40:37;5.50;;;1.97;;
5052;SDS011;2545;50.892;5.740;2024-02-14T01:43:03;3.30;;;1.90;;
5052;SDS011;2545;50.892;5.740;2024-02-14T01:45:28;2.40;;;1.70;;
5052;SDS011;2545;50.892;5.740;2024-02-14T01:47:54;2.50;;;1.87;;
5052;SDS011;2545;50.892;5.740;2024-02-14T01:50:20;2.10;;;1.90;;
5052;SDS011;2545;50.892;5.740;2024-02-14T01:52:53;5.17;;;2.10;;
5052;SDS011;2545;50.892;5.740;2024-02-14T01:55:20;2.70;;;2.20;;
5052;SDS011;2545;50.892;5.740;2024-02-14T01:57:47;3.00;;;2.70;;
5052;SDS011;2545;50.892;5.740;2024-02-14T02:00:13;2.73;;;2.30;;
5052;SDS011;2545;50.892;5.740;2024-02-14T02:02:43;2.90;;;2.60;;
5052;SDS011;2545;50.892;5.740;2024-02-14T02:05:08;2.63;;;2.07;;
5052;SDS011;2545;50.892;5.740;2024-02-14T02:07:34;7.90;;;2.80;;
5052;SDS011;2545;50.892;5.740;2024-02-14T02:10:00;4.60;;;2.40;;
5052;SDS011;2545;50.892;5.740;2024-02-14T02:12:26;3.90;;;2.30;;
5052;SDS011;2545;50.892;5.740;2024-02-14T02:14:52;2.50;;;1.87;;
5052;SDS011;2545;50.892;5.740;2024-02-14T02:17:18;3.40;;;2.20;;
5052;SDS011;2545;50.892;5.740;2024-02-14T02:19:44;15.37;;;2.63;;
5052;SDS011;2545;50.892;5.740;2024-02-14T02:22:09;3.73;;;2.10;;
5052;SDS011;2545;50.892;5.740;2024-02-14T02:24:35;2.50;;;2.30;;
5052;SDS011;2545;50.892;5.740;2024-02-14T02:27:00;6.23;;;2.57;;
5052;SDS011;2545;50.892;5.740;2024-02-14T02:29:28;2.53;;;2.07;;
5052;SDS011;2545;50.892;5.740;2024-02-14T02:31:54;4.80;;;2.07;;
5052;SDS011;2545;50.892;5.740;2024-02-14T02:34:19;4.20;;;1.77;;
5052;SDS011;2545;50.892;5.740;2024-02-14T02:36:45;2.30;;;2.10;;
5052;SDS011;2545;50.892;5.740;2024-02-14T02:39:12;3.07;;;2.20;;
5052;SDS011;2545;50.892;5.740;2024-02-14T02:41:38;6.63;;;2.40;;
5052;SDS011;2545;50.892;5.740;2024-02-14T02:44:04;4.10;;;2.47;;
5052;SDS011;2545;50.892;5.740;2024-02-14T02:46:33;3.47;;;2.40;;
5052;SDS011;2545;50.892;5.740;2024-02-14T02:48:58;6.00;;;2.70;;
5052;SDS011;2545;50.892;5.740;2024-02-14T02:51:24;4.77;;;3.17;;
5052;SDS011;2545;50.892;5.740;2024-02-14T02:53:49;5.40;;;2.70;;
5052;SDS011;2545;50.892;5.740;2024-02-14T02:56:18;3.40;;;2.87;;
5052;SDS011;2545;50.892;5.740;2024-02-14T02:58:43;6.13;;;3.20;;
5052;SDS011;2545;50.892;5.740;2024-02-14T03:01:09;3.00;;;2.70;;
5052;SDS011;2545;50.892;5.740;2024-02-14T03:03:35;4.20;;;2.97;;
5052;SDS011;2545;50.892;5.740;2024-02-14T03:06:01;4.47;;;3.30;;
5052;SDS011;2545;50.892;5.740;2024-02-14T03:08:30;3.90;;;2.80;;
5052;SDS011;2545;50.892;5.740;2024-02-14T03:10:56;4.17;;;3.03;;
5052;SDS011;2545;50.892;5.740;2024-02-14T03:13:24;4.70;;;2.70;;
5052;SDS011;2545;50.892;5.740;2024-02-14T03:15:51;2.90;;;2.67;;
5052;SDS011;2545;50.892;5.740;2024-02-14T03:18:17;11.50;;;2.90;;
5052;SDS011;2545;50.892;5.740;2024-02-14T03:20:43;5.67;;;3.07;;
5052;SDS011;2545;50.892;5.740;2024-02-14T03:23:09;4.87;;;2.80;;
5052;SDS011;2545;50.892;5.740;2024-02-14T03:25:34;11.03;;;3.73;;
5052;SDS011;2545;50.892;5.740;2024-02-14T03:28:01;3.70;;;2.60;;
5052;SDS011;2545;50.892;5.740;2024-02-14T03:30:32;2.70;;;2.50;;
5052;SDS011;2545;50.892;5.740;2024-02-14T03:32:58;3.37;;;3.03;;
5052;SDS011;2545;50.892;5.740;2024-02-14T03:35:24;7.90;;;3.30;;
5052;SDS011;2545;50.892;5.740;2024-02-14T03:37:51;5.43;;;3.00;;
5052;SDS011;2545;50.892;5.740;2024-02-14T03:40:18;3.87;;;2.80;;
5052;SDS011;2545;50.892;5.740;2024-02-14T03:42:45;3.23;;;2.83;;
5052;SDS011;2545;50.892;5.740;2024-02-14T03:45:11;5.73;;;3.13;;
5052;SDS011;2545;50.892;5.740;2024-02-14T03:47:37;3.90;;;2.83;;
5052;SDS011;2545;50.892;5.740;2024-02-14T03:50:04;3.83;;;2.30;;
5052;SDS011;2545;50.892;5.740;2024-02-14T03:52:30;6.37;;;2.73;;
5052;SDS011;2545;50.892;5.740;2024-02-14T03:54:57;5.93;;;3.17;;
5052;SDS011;2545;50.892;5.740;2024-02-14T03:57:24;3.33;;;2.60;;
5052;SDS011;2545;50.892;5.740;2024-02-14T03:59:53;2.70;;;2.50;;
5052;SDS011;2545;50.892;5.740;2024-02-14T04:02:19;6.13;;;2.50;;
5052;SDS011;2545;50.892;5.740;2024-02-14T04:04:45;3.97;;;2.60;;
5052;SDS011;2545;50.892;5.740;2024-02-14T04:07:11;6.40;;;3.03;;
5052;SDS011;2545;50.892;5.740;2024-02-14T04:09:37;4.07;;;2.90;;
5052;SDS011;2545;50.892;5.740;2024-02-14T04:12:03;3.70;;;2.80;;
5052;SDS011;2545;50.892;5.740;2024-02-14T04:14:32;12.47;;;2.60;;
5052;SDS011;2545;50.892;5.740;2024-02-14T04:16:57;4.33;;;2.77;;
5052;SDS011;2545;50.892;5.740;2024-02-14T04:19:24;8.07;;;3.27;;
5052;SDS011;2545;50.892;5.740;2024-02-14T04:21:51;7.17;;;3.00;;
5052;SDS011;2545;50.892;5.740;2024-02-14T04:24:16;4.33;;;3.17;;
5052;SDS011;2545;50.892;5.740;2024-02-14T04:26:41;5.17;;;2.87;;
5052;SDS011;2545;50.892;5.740;2024-02-14T04:29:10;4.10;;;2.60;;
5052;SDS011;2545;50.892;5.740;2024-02-14T04:31:35;4.10;;;2.43;;
5052;SDS011;2545;50.892;5.740;2024-02-14T04:34:01;4.03;;;2.73;;
5052;SDS011;2545;50.892;5.740;2024-02-14T04:36:26;3.93;;;2.50;;
5052;SDS011;2545;50.892;5.740;2024-02-14T04:38:52;7.60;;;2.80;;
5052;SDS011;2545;50.892;5.740;2024-02-14T04:41:18;3.87;;;3.20;;
5052;SDS011;2545;50.892;5.740;2024-02-14T04:43:44;3.87;;;3.00;;
5052;SDS011;2545;50.892;5.740;2024-02-14T04:46:09;4.80;;;3.20;;
5052;SDS011;2545;50.892;5.740;2024-02-14T04:48:35;5.60;;;2.93;;
5052;SDS011;2545;50.892;5.740;2024-02-14T04:51:03;5.50;;;3.60;;
5052;SDS011;2545;50.892;5.740;2024-02-14T04:53:32;5.20;;;3.63;;
5052;SDS011;2545;50.892;5.740;2024-02-14T04:55:58;4.00;;;3.30;;
5052;SDS011;2545;50.892;5.740;2024-02-14T04:58:24;3.67;;;2.77;;
5052;SDS011;2545;50.892;5.740;2024-02-14T05:00:52;5.03;;;3.80;;
5052;SDS011;2545;50.892;5.740;2024-02-14T05:03:21;4.73;;;3.60;;
5052;SDS011;2545;50.892;5.740;2024-02-14T05:05:46;4.60;;;3.23;;
5052;SDS011;2545;50.892;5.740;2024-02-14T05:08:11;3.80;;;3.03;;
5052;SDS011;2545;50.892;5.740;2024-02-14T05:10:37;7.90;;;4.00;;
5052;SDS011;2545;50.892;5.740;2024-02-14T05:13:02;4.63;;;3.63;;
5052;SDS011;2545;50.892;5.740;2024-02-14T05:15:28;4.93;;;2.93;;
5052;SDS011;2545;50.892;5.740;2024-02-14T05:17:53;6.30;;;3.20;;
5052;SDS011;2545;50.892;5.740;2024-02-14T05:20:18;7.17;;;4.00;;
5052;SDS011;2545;50.892;5.740;2024-02-14T05:22:44;5.67;;;3.50;;
5052;SDS011;2545;50.892;5.740;2024-02-14T05:25:09;6.13;;;3.13;;
5052;SDS011;2545;50.892;5.740;2024-02-14T05:27:35;8.20;;;3.73;;
5052;SDS011;2545;50.892;5.740;2024-02-14T05:30:02;11.23;;;4.20;;
5052;SDS011;2545;50.892;5.740;2024-02-14T05:32:30;8.93;;;4.10;;
5052;SDS011;2545;50.892;5.740;2024-02-14T05:34:57;5.60;;;3.80;;
5052;SDS011;2545;50.892;5.740;2024-02-14T05:37:22;5.90;;;3.87;;
5052;SDS011;2545;50.892;5.740;2024-02-14T05:39:48;6.70;;;3.13;;
5052;SDS011;2545;50.892;5.740;2024-02-14T05:42:13;14.40;;;3.43;;
5052;SDS011;2545;50.892;5.740;2024-02-14T05:44:41;5.50;;;3.43;;
5052;SDS011;2545;50.892;5.740;2024-02-14T05:47:07;7.80;;;4.17;;
5052;SDS011;2545;50.892;5.740;2024-02-14T05:49:33;6.47;;;4.07;;
5052;SDS011;2545;50.892;5.740;2024-02-14T05:51:58;5.33;;;3.97;;
5052;SDS011;2545;50.892;5.740;2024-02-14T05:54:25;5.70;;;4.03;;
5052;SDS011;2545;50.892;5.740;2024-02-14T05:56:51;6.53;;;3.83;;
5052;SDS011;2545;50.892;5.740;2024-02-14T05:59:16;5.63;;;3.30;;
5052;SDS011;2545;50.892;5.740;2024-02-14T06:01:43;7.40;;;3.60;;
5052;SDS011;2545;50.892;5.740;2024-02-14T06:04:08;4.80;;;3.60;;
5052;SDS011;2545;50.892;5.740;2024-02-14T06:06:33;9.73;;;4.20;;
5052;SDS011;2545;50.892;5.740;2024-02-14T06:08:59;6.87;;;3.53;;
5052;SDS011;2545;50.892;5.740;2024-02-14T06:11:24;7.20;;;3.77;;
5052;SDS011;2545;50.892;5.740;2024-02-14T06:13:52;9.53;;;4.53;;
5052;SDS011;2545;50.892;5.740;2024-02-14T06:16:18;8.60;;;4.37;;
5052;SDS011;2545;50.892;5.740;2024-02-14T06:18:43;5.93;;;3.60;;
5052;SDS011;2545;50.892;5.740;2024-02-14T06:21:08;10.10;;;3.27;;
5052;SDS011;2545;50.892;5.740;2024-02-14T06:23:34;5.93;;;3.90;;
5052;SDS011;2545;50.892;5.740;2024-02-14T06:25:59;4.80;;;3.50;;
5052;SDS011;2545;50.892;5.740;2024-02-14T06:28:25;5.20;;;3.87;;
5052;SDS011;2545;50.892;5.740;2024-02-14T06:30:50;4.50;;;3.43;;
5052;SDS011;2545;50.892;5.740;2024-02-14T06:33:16;6.23;;;3.70;;
5052;SDS011;2545;50.892;5.740;2024-02-14T06:35:42;6.57;;;4.23;;
5052;SDS011;2545;50.892;5.740;2024-02-14T06:38:07;7.00;;;3.87;;
5052;SDS011;2545;50.892;5.740;2024-02-14T06:40:33;10.57;;;3.93;;
5052;SDS011;2545;50.892;5.740;2024-02-14T06:42:58;5.73;;;3.37;;
5052;SDS011;2545;50.892;5.740;2024-02-14T06:45:25;7.13;;;3.60;;
5052;SDS011;2545;50.892;5.740;2024-02-14T06:47:52;4.60;;;3.60;;
5052;SDS011;2545;50.892;5.740;2024-02-14T06:50:18;7.03;;;4.13;;
5052;SDS011;2545;50.892;5.740;2024-02-14T06:52:43;7.43;;;3.67;;
5052;SDS011;2545;50.892;5.740;2024-02-14T06:55:08;6.63;;;3.90;;
5052;SDS011;2545;50.892;5.740;2024-02-14T06:57:33;5.13;;;3.37;;
5052;SDS011;2545;50.892;5.740;2024-02-14T06:59:59;5.80;;;3.80;;
5052;SDS011;2545;50.892;5.740;2024-02-14T07:02:24;7.60;;;4.17;;
5052;SDS011;2545;50.892;5.740;2024-02-14T07:04:53;9.07;;;3.87;;
5052;SDS011;2545;50.892;5.740;2024-02-14T07:07:18;5.57;;;3.70;;
5052;SDS011;2545;50.892;5.740;2024-02-14T07:09:44;3.77;;;3.40;;
5052;SDS011;2545;50.892;5.740;2024-02-14T07:12:09;6.53;;;3.60;;
5052;SDS011;2545;50.892;5.740;2024-02-14T07:14:34;9.17;;;4.30;;
5052;SDS011;2545;50.892;5.740;2024-02-14T07:16:59;9.97;;;4.20;;
5052;SDS011;2545;50.892;5.740;2024-02-14T07:19:26;5.77;;;3.93;;
5052;SDS011;2545;50.892;5.740;2024-02-14T07:21:54;4.07;;;3.03;;
5052;SDS011;2545;50.892;5.740;2024-02-14T07:24:19;3.97;;;3.57;;
5052;SDS011;2545;50.892;5.740;2024-02-14T07:26:45;7.00;;;3.77;;
5052;SDS011;2545;50.892;5.740;2024-02-14T07:29:11;10.00;;;3.40;;
5052;SDS011;2545;50.892;5.740;2024-02-14T07:31:36;8.63;;;3.27;;
5052;SDS011;2545;50.892;5.740;2024-02-14T07:34:01;11.53;;;3.13;;
5052;SDS011;2545;50.892;5.740;2024-02-14T07:36:28;12.43;;;3.07;;
5052;SDS011;2545;50.892;5.740;2024-02-14T07:38:56;6.87;;;3.83;;
5052;SDS011;2545;50.892;5.740;2024-02-14T07:41:23;4.50;;;3.23;;
5052;SDS011;2545;50.892;5.740;2024-02-14T07:43:48;4.83;;;3.20;;
5052;SDS011;2545;50.892;5.740;2024-02-14T07:46:20;5.20;;;2.93;;
5052;SDS011;2545;50.892;5.740;2024-02-14T07:48:47;6.30;;;3.80;;
5052;SDS011;2545;50.892;5.740;2024-02-14T07:51:13;3.60;;;2.80;;
5052;SDS011;2545;50.892;5.740;2024-02-14T07:53:39;12.37;;;3.27;;
5052;SDS011;2545;50.892;5.740;2024-02-14T07:56:04;6.43;;;3.90;;
5052;SDS011;2545;50.892;5.740;2024-02-14T07:58:30;4.40;;;2.73;;
5052;SDS011;2545;50.892;5.740;2024-02-14T08:00:55;10.23;;;2.60;;
5052;SDS011;2545;50.892;5.740;2024-02-14T08:03:21;4.83;;;3.30;;
5052;SDS011;2545;50.892;5.740;2024-02-14T08:05:46;4.80;;;2.90;;
5052;SDS011;2545;50.892;5.740;2024-02-14T08:08:11;12.20;;;3.27;;
5052;SDS011;2545;50.892;5.740;2024-02-14T08:10:37;4.17;;;2.47;;
5052;SDS011;2545;50.892;5.740;2024-02-14T08:13:03;4.30;;;2.97;;
5052;SDS011;2545;50.892;5.740;2024-02-14T08:15:29;2.70;;;2.50;;
5052;SDS011;2545;50.892;5.740;2024-02-14T08:17:55;6.33;;;3.00;;
5052;SDS011;2545;50.892;5.740;2024-02-14T08:20:22;5.13;;;3.77;;
5052;SDS011;2545;50.892;5.740;2024-02-14T08:22:48;5.83;;;2.37;;
5052;SDS011;2545;50.892;5.740;2024-02-14T08:25:14;4.40;;;3.23;;
5052;SDS011;2545;50.892;5.740;2024-02-14T08:27:41;7.13;;;3.40;;
5052;SDS011;2545;50.892;5.740;2024-02-14T08:30:06;4.20;;;2.47;;
5052;SDS011;2545;50.892;5.740;2024-02-14T08:32:34;9.50;;;2.90;;
5052;SDS011;2545;50.892;5.740;2024-02-14T08:34:59;8.70;;;3.00;;
5052;SDS011;2545;50.892;5.740;2024-02-14T08:37:26;6.00;;;2.77;;
5052;SDS011;2545;50.892;5.740;2024-02-14T08:39:52;7.43;;;2.33;;
5052;SDS011;2545;50.892;5.740;2024-02-14T08:42:19;3.63;;;2.57;;
5052;SDS011;2545;50.892;5.740;2024-02-14T08:44:44;10.97;;;2.97;;
5052;SDS011;2545;50.892;5.740;2024-02-14T08:47:09;7.20;;;3.00;;
5052;SDS011;2545;50.892;5.740;2024-02-14T08:49:35;5.13;;;2.40;;
5052;SDS011;2545;50.892;5.740;2024-02-14T08:52:01;5.23;;;2.57;;
5052;SDS011;2545;50.892;5.740;2024-02-14T08:54:27;2.77;;;2.27;;
5052;SDS011;2545;50.892;5.740;2024-02-14T08:56:53;15.93;;;2.80;;
5052;SDS011;2545;50.892;5.740;2024-02-14T08:59:20;4.23;;;2.27;;
5052;SDS011;2545;50.892;5.740;2024-02-14T09:01:48;9.93;;;3.80;;
5052;SDS011;2545;50.892;5.740;2024-02-14T09:04:13;4.07;;;2.40;;
5052;SDS011;2545;50.892;5.740;2024-02-14T09:06:39;6.60;;;2.80;;
5052;SDS011;2545;50.892;5.740;2024-02-14T09:09:05;3.10;;;2.00;;
5052;SDS011;2545;50.892;5.740;2024-02-14T09:11:31;4.70;;;2.17;;
5052;SDS011;2545;50.892;5.740;2024-02-14T09:13:57;4.80;;;2.30;;
5052;SDS011;2545;50.892;5.740;2024-02-14T09:16:29;3.80;;;2.37;;
5052;SDS011;2545;50.892;5.740;2024-02-14T09:18:57;7.20;;;2.50;;
5052;SDS011;2545;50.892;5.740;2024-02-14T09:21:23;6.90;;;2.97;;
5052;SDS011;2545;50.892;5.740;2024-02-14T09:23:48;3.63;;;2.53;;
5052;SDS011;2545;50.892;5.740;2024-02-14T09:26:14;5.07;;;2.30;;
5052;SDS011;2545;50.892;5.740;2024-02-14T09:28:41;3.50;;;2.40;;
5052;SDS011;2545;50.892;5.740;2024-02-14T09:31:07;6.17;;;2.50;;
5052;SDS011;2545;50.892;5.740;2024-02-14T09:33:35;2.23;;;1.60;;
5052;SDS011;2545;50.892;5.740;2024-02-14T09:36:03;5.23;;;2.17;;
5052;SDS011;2545;50.892;5.740;2024-02-14T09:38:30;2.87;;;1.93;;
5052;SDS011;2545;50.892;5.740;2024-02-14T09:43:43;3.93;;;2.00;;
5052;SDS011;2545;50.892;5.740;2024-02-14T09:46:10;4.13;;;2.27;;
5052;SDS011;2545;50.892;5.740;2024-02-14T09:48:37;2.47;;;2.17;;
5052;SDS011;2545;50.892;5.740;2024-02-14T09:51:04;8.87;;;1.87;;
5052;SDS011;2545;50.892;5.740;2024-02-14T09:53:31;5.30;;;2.40;;
5052;SDS011;2545;50.892;5.740;2024-02-14T09:55:57;2.67;;;1.87;;
5052;SDS011;2545;50.892;5.740;2024-02-14T09:58:24;6.13;;;2.40;;
5052;SDS011;2545;50.892;5.740;2024-02-14T10:00:59;4.53;;;2.40;;
5052;SDS011;2545;50.892;5.740;2024-02-14T10:03:25;5.60;;;2.50;;
5052;SDS011;2545;50.892;5.740;2024-02-14T10:05:51;4.90;;;2.13;;
5052;SDS011;2545;50.892;5.740;2024-02-14T10:08:17;6.30;;;2.30;;
5052;SDS011;2545;50.892;5.740;2024-02-14T10:10:43;4.77;;;2.10;;
5052;SDS011;2545;50.892;5.740;2024-02-14T10:13:09;2.13;;;1.67;;
5052;SDS011;2545;50.892;5.740;2024-02-14T10:15:34;4.33;;;2.33;;
5052;SDS011;2545;50.892;5.740;2024-02-14T10:18:00;2.93;;;1.90;;
5052;SDS011;2545;50.892;5.740;2024-02-14T10:20:26;8.63;;;2.23;;
5052;SDS011;2545;50.892;5.740;2024-02-14T10:22:53;2.00;;;1.80;;
5052;SDS011;2545;50.892;5.740;2024-02-14T10:25:27;7.30;;;1.90;;
5052;SDS011;2545;50.892;5.740;2024-02-14T10:27:52;2.87;;;2.03;;
5052;SDS011;2545;50.892;5.740;2024-02-14T10:30:17;3.90;;;2.00;;
5052;SDS011;2545;50.892;5.740;2024-02-14T10:32:43;1.80;;;1.67;;
5052;SDS011;2545;50.892;5.740;2024-02-14T10:35:13;6.83;;;2.00;;
5052;SDS011;2545;50.892;5.740;2024-02-14T10:37:40;3.53;;;2.00;;
5052;SDS011;2545;50.892;5.740;2024-02-14T10:40:05;4.43;;;1.93;;
5052;SDS011;2545;50.892;5.740;2024-02-14T10:42:32;3.40;;;1.90;;
5052;SDS011;2545;50.892;5.740;2024-02-14T10:44:58;4.17;;;1.97;;
5052;SDS011;2545;50.892;5.740;2024-02-14T10:47:30;4.90;;;2.53;;
5052;SDS011;2545;50.892;5.740;2024-02-14T10:50:04;3.00;;;1.93;;
5052;SDS011;2545;50.892;5.740;2024-02-14T10:52:32;10.10;;;2.73;;
5052;SDS011;2545;50.892;5.740;2024-02-14T10:54:59;6.33;;;1.97;;
5052;SDS011;2545;50.892;5.740;2024-02-14T10:57:27;8.60;;;2.43;;
5052;SDS011;2545;50.892;5.740;2024-02-14T10:59:54;4.60;;;2.30;;
5052;SDS011;2545;50.892;5.740;2024-02-14T11:02:22;3.10;;;2.10;;
5052;SDS011;2545;50.892;5.740;2024-02-14T11:04:49;3.70;;;1.90;;
5052;SDS011;2545;50.892;5.740;2024-02-14T11:07:22;3.77;;;1.70;;
5052;SDS011;2545;50.892;5.740;2024-02-14T11:10:00;3.80;;;1.90;;
5052;SDS011;2545;50.892;5.740;2024-02-14T11:12:32;1.70;;;1.43;;
5052;SDS011;2545;50.892;5.740;2024-02-14T11:14:59;4.60;;;1.80;;
5052;SDS011;2545;50.892;5.740;2024-02-14T11:17:27;3.33;;;1.57;;
5052;SDS011;2545;50.892;5.740;2024-02-14T11:19:53;1.60;;;1.50;;
5052;SDS011;2545;50.892;5.740;2024-02-14T11:22:19;2.53;;;1.83;;
5052;SDS011;2545;50.892;5.740;2024-02-14T11:24:48;3.30;;;1.20;;
5052;SDS011;2545;50.892;5.740;2024-02-14T11:27:14;1.40;;;1.20;;
5052;SDS011;2545;50.892;5.740;2024-02-14T11:29:54;1.37;;;1.27;;
5052;SDS011;2545;50.892;5.740;2024-02-14T11:32:21;2.40;;;1.53;;
5052;SDS011;2545;50.892;5.740;2024-02-14T11:34:55;1.60;;;1.50;;
5052;SDS011;2545;50.892;5.740;2024-02-14T11:37:26;3.30;;;1.47;;
5052;SDS011;2545;50.892;5.740;2024-02-14T11:39:55;2.23;;;1.63;;
5052;SDS011;2545;50.892;5.740;2024-02-14T11:42:23;7.00;;;1.60;;
5052;SDS011;2545;50.892;5.740;2024-02-14T11:44:49;1.73;;;1.30;;
5052;SDS011;2545;50.892;5.740;2024-02-14T11:47:15;1.87;;;1.60;;
5052;SDS011;2545;50.892;5.740;2024-02-14T11:49:41;1.73;;;1.60;;
5052;SDS011;2545;50.892;5.740;2024-02-14T11:52:11;2.10;;;1.40;;
5052;SDS011;2545;50.892;5.740;2024-02-14T11:54:39;3.23;;;1.47;;
5052;SDS011;2545;50.892;5.740;2024-02-14T11:57:10;2.40;;;1.40;;
5052;SDS011;2545;50.892;5.740;2024-02-14T11:59:37;2.97;;;1.53;;
5052;SDS011;2545;50.892;5.740;2024-02-14T12:02:02;3.10;;;1.70;;
5052;SDS011;2545;50.892;5.740;2024-02-14T12:04:29;6.30;;;2.27;;
5052;SDS011;2545;50.892;5.740;2024-02-14T12:06:55;1.80;;;1.60;;
5052;SDS011;2545;50.892;5.740;2024-02-14T12:09:21;1.83;;;1.40;;
5052;SDS011;2545;50.892;5.740;2024-02-14T12:11:46;3.90;;;1.57;;
5052;SDS011;2545;50.892;5.740;2024-02-14T12:14:15;1.87;;;1.73;;
5052;SDS011;2545;50.892;5.740;2024-02-14T12:16:40;1.40;;;1.30;;
5052;SDS011;2545;50.892;5.740;2024-02-14T12:19:06;1.90;;;1.80;;
5052;SDS011;2545;50.892;5.740;2024-02-14T12:21:41;1.77;;;1.33;;
5052;SDS011;2545;50.892;5.740;2024-02-14T12:24:13;2.83;;;1.90;;
5052;SDS011;2545;50.892;5.740;2024-02-14T12:26:41;2.50;;;1.90;;
5052;SDS011;2545;50.892;5.740;2024-02-14T12:29:12;2.20;;;1.60;;
5052;SDS011;2545;50.892;5.740;2024-02-14T12:31:42;3.50;;;1.50;;
5052;SDS011;2545;50.892;5.740;2024-02-14T12:34:10;2.47;;;1.50;;
5052;SDS011;2545;50.892;5.740;2024-02-14T12:36:37;2.20;;;1.70;;
5052;SDS011;2545;50.892;5.740;2024-02-14T12:39:03;2.40;;;1.40;;
5052;SDS011;2545;50.892;5.740;2024-02-14T12:41:29;2.33;;;1.50;;
5052;SDS011;2545;50.892;5.740;2024-02-14T12:44:00;4.33;;;1.97;;
5052;SDS011;2545;50.892;5.740;2024-02-14T12:46:37;1.93;;;1.50;;
5052;SDS011;2545;50.892;5.740;2024-02-14T12:49:06;3.93;;;1.50;;
5052;SDS011;2545;50.892;5.740;2024-02-14T12:51:34;3.10;;;1.90;;
5052;SDS011;2545;50.892;5.740;2024-02-14T12:54:01;2.57;;;1.90;;
5052;SDS011;2545;50.892;5.740;2024-02-14T12:56:28;4.57;;;1.80;;
5052;SDS011;2545;50.892;5.740;2024-02-14T12:58:53;5.27;;;2.10;;
5052;SDS011;2545;50.892;5.740;2024-02-14T13:01:20;1.30;;;1.20;;
5052;SDS011;2545;50.892;5.740;2024-02-14T13:03:46;6.47;;;1.73;;
5052;SDS011;2545;50.892;5.740;2024-02-14T13:06:13;1.93;;;1.57;;
5052;SDS011;2545;50.892;5.740;2024-02-14T13:08:42;13.37;;;1.97;;
5052;SDS011;2545;50.892;5.740;2024-02-14T13:11:18;1.67;;;1.30;;
5052;SDS011;2545;50.892;5.740;2024-02-14T13:13:47;2.40;;;2.13;;
5052;SDS011;2545;50.892;5.740;2024-02-14T13:16:12;1.47;;;1.20;;
5052;SDS011;2545;50.892;5.740;2024-02-14T13:18:39;2.80;;;1.83;;
5052;SDS011;2545;50.892;5.740;2024-02-14T13:21:06;2.80;;;1.77;;
5052;SDS011;2545;50.892;5.740;2024-02-14T13:23:31;1.67;;;1.33;;
5052;SDS011;2545;50.892;5.740;2024-02-14T13:25:58;1.37;;;1.27;;
5052;SDS011;2545;50.892;5.740;2024-02-14T13:28:23;4.90;;;1.50;;
5052;SDS011;2545;50.892;5.740;2024-02-14T13:30:49;1.27;;;1.17;;
5052;SDS011;2545;50.892;5.740;2024-02-14T13:33:15;4.03;;;1.80;;
5052;SDS011;2545;50.892;5.740;2024-02-14T13:35:40;5.00;;;2.07;;
5052;SDS011;2545;50.892;5.740;2024-02-14T13:38:06;1.73;;;1.60;;
5052;SDS011;2545;50.892;5.740;2024-02-14T13:40:31;7.13;;;1.73;;
5052;SDS011;2545;50.892;5.740;2024-02-14T13:42:57;2.13;;;1.80;;
5052;SDS011;2545;50.892;5.740;2024-02-14T13:45:23;1.83;;;1.70;;
5052;SDS011;2545;50.892;5.740;2024-02-14T13:47:49;1.60;;;1.43;;
5052;SDS011;2545;50.892;5.740;2024-02-14T13:50:16;2.80;;;1.50;;
5052;SDS011;2545;50.892;5.740;2024-02-14T13:52:41;1.77;;;1.40;;
5052;SDS011;2545;50.892;5.740;2024-02-14T13:55:06;6.10;;;1.60;;
5052;SDS011;2545;50.892;5.740;2024-02-14T13:57:33;1.70;;;1.60;;
5052;SDS011;2545;50.892;5.740;2024-02-14T14:00:01;6.17;;;1.80;;
5052;SDS011;2545;50.892;5.740;2024-02-14T14:02:27;2.50;;;1.70;;
5052;SDS011;2545;50.892;5.740;2024-02-14T14:04:52;6.73;;;1.53;;
5052;SDS011;2545;50.892;5.740;2024-02-14T14:07:18;2.27;;;2.00;;
5052;SDS011;2545;50.892;5.740;2024-02-14T14:09:44;2.07;;;1.90;;
5052;SDS011;2545;50.892;5.740;2024-02-14T14:12:09;3.57;;;1.53;;
5052;SDS011;2545;50.892;5.740;2024-02-14T14:14:36;1.50;;;1.40;;
5052;SDS011;2545;50.892;5.740;2024-02-14T14:17:01;3.20;;;1.87;;
5052;SDS011;2545;50.892;5.740;2024-02-14T14:19:26;2.00;;;1.73;;
5052;SDS011;2545;50.892;5.740;2024-02-14T14:21:52;2.87;;;1.57;;
5052;SDS011;2545;50.892;5.740;2024-02-14T14:24:17;2.73;;;1.83;;
5052;SDS011;2545;50.892;5.740;2024-02-14T14:26:43;4.40;;;1.90;;
5052;SDS011;2545;50.892;5.740;2024-02-14T14:29:08;2.43;;;2.23;;
5052;SDS011;2545;50.892;5.740;2024-02-14T14:31:34;1.90;;;1.80;;
5052;SDS011;2545;50.892;5.740;2024-02-14T14:34:00;3.20;;;2.33;;
5052;SDS011;2545;50.892;5.740;2024-02-14T14:36:29;2.53;;;2.10;;
5052;SDS011;2545;50.892;5.740;2024-02-14T14:38:54;2.30;;;2.00;;
5052;SDS011;2545;50.892;5.740;2024-02-14T14:41:20;2.53;;;2.33;;
5052;SDS011;2545;50.892;5.740;2024-02-14T14:43:46;3.50;;;2.13;;
5052;SDS011;2545;50.892;5.740;2024-02-14T14:46:14;3.13;;;2.17;;
5052;SDS011;2545;50.892;5.740;2024-02-14T14:48:39;2.83;;;2.47;;
5052;SDS011;2545;50.892;5.740;2024-02-14T14:51:04;6.60;;;2.20;;
5052;SDS011;2545;50.892;5.740;2024-02-14T14:53:30;3.33;;;2.23;;
5052;SDS011;2545;50.892;5.740;2024-02-14T14:55:56;3.03;;;2.83;;
5052;SDS011;2545;50.892;5.740;2024-02-14T14:58:22;8.43;;;3.03;;
5052;SDS011;2545;50.892;5.740;2024-02-14T15:00:49;3.50;;;3.10;;
5052;SDS011;2545;50.892;5.740;2024-02-14T15:03:21;4.37;;;3.07;;
5052;SDS011;2545;50.892;5.740;2024-02-14T15:05:47;3.37;;;3.07;;
5052;SDS011;2545;50.892;5.740;2024-02-14T15:08:13;6.93;;;3.00;;
5052;SDS011;2545;50.892;5.740;2024-02-14T15:10:38;7.00;;;3.30;;
5052;SDS011;2545;50.892;5.740;2024-02-14T15:13:07;6.00;;;3.23;;